createdAt,value
2019-05-19T19:48:16.222Z,98646.63
2019-05-19T19:50:50.123Z,98656.09
2019-05-19T19:53:24.138Z,98657.28
2019-05-19T19:56:00.998Z,98663.89
2019-05-19T19:58:36.984Z,98671.78
2019-05-19T20:01:12.754Z,98671.53
2019-05-19T20:03:49.069Z,98670.56
2019-05-19T20:06:22.479Z,98667.76
2019-05-19T20:08:56.188Z,98670.09
2019-05-19T20:11:29.325Z,98671.97
2019-05-19T20:14:05.689Z,98669.75
2019-05-19T20:16:44.176Z,98674.22
2019-05-19T20:19:18.341Z,98674.36
2019-05-19T20:21:54.807Z,98675.83
2019-05-19T20:24:29.832Z,98677.10
2019-05-19T20:27:02.850Z,98672.13
2019-05-19T20:29:42.308Z,98678.23
2019-05-19T20:32:24.267Z,98676.77
2019-05-19T20:34:59.545Z,98684.30
2019-05-19T20:37:32.751Z,98683.78
2019-05-19T20:40:11.186Z,98680.80
2019-05-19T20:42:45.015Z,98681.14
2019-05-19T20:45:18.362Z,98681.72
2019-05-19T20:47:52.467Z,98678.14
2019-05-19T20:50:30.957Z,98675.30
2019-05-19T20:53:05.767Z,98675.30
2019-05-19T20:55:39.992Z,98677.96
2019-05-19T20:58:13.350Z,98680.27
2019-05-19T21:00:50.578Z,98672.13
2019-05-19T21:03:21.940Z,98678.22
2019-05-19T21:05:57.850Z,98675.21
2019-05-19T21:08:31.884Z,98678.97
2019-05-19T21:11:05.301Z,98670.30
2019-05-19T21:13:38.564Z,98668.93
2019-05-19T21:16:12.159Z,98670.57
2019-05-19T21:18:47.127Z,98668.66
2019-05-19T21:21:20.275Z,98662.61
2019-05-19T21:23:53.706Z,98665.09
2019-05-19T21:26:26.887Z,98665.03
2019-05-19T21:28:59.551Z,98665.78
2019-05-19T21:31:32.906Z,98670.13
2019-05-19T21:34:06.314Z,98672.20
2019-05-19T21:36:40.286Z,98675.22
2019-05-19T21:39:13.850Z,98680.11
2019-05-19T21:41:46.772Z,98673.48
2019-05-19T21:44:19.872Z,98679.64
2019-05-19T21:46:53.369Z,98683.70
2019-05-19T21:49:26.562Z,98683.02
2019-05-19T21:51:59.328Z,98690.42
2019-05-19T21:54:32.335Z,98683.72
2019-05-19T21:57:06.045Z,98688.56
2019-05-19T21:59:39.555Z,98686.61
2019-05-19T22:02:13.041Z,98683.23
2019-05-19T22:04:46.185Z,98684.28
2019-05-19T22:07:29.060Z,98691.42
2019-05-19T22:10:02.556Z,98683.15
2019-05-19T22:12:35.743Z,98680.35
2019-05-19T22:15:10.957Z,98691.58
2019-05-19T22:17:44.005Z,98688.48
2019-05-19T22:20:17.497Z,98693.73
2019-05-19T22:22:50.553Z,98694.94
2019-05-19T22:25:26.509Z,98693.79
2019-05-19T22:28:00.017Z,98700.02
2019-05-19T22:30:32.655Z,98701.45
2019-05-19T22:33:06.408Z,98697.98
2019-05-19T22:35:40.382Z,98698.36
2019-05-19T22:38:13.424Z,98696.54
2019-05-19T22:40:46.001Z,98693.81
2019-05-19T22:43:19.759Z,98695.58
2019-05-19T22:45:53.192Z,98692.35
2019-05-19T22:48:26.578Z,98689.42
2019-05-19T22:51:00.072Z,98692.80
2019-05-19T22:53:32.804Z,98696.73
2019-05-19T22:56:05.995Z,98691.02
2019-05-19T22:58:41.513Z,98693.06
2019-05-19T23:01:14.280Z,98689.09
2019-05-19T23:03:46.967Z,98695.78
2019-05-19T23:06:20.063Z,98699.55
2019-05-19T23:08:53.468Z,98698.66
2019-05-19T23:11:27.052Z,98695.12
2019-05-19T23:14:01.811Z,98690.45
2019-05-19T23:16:35.093Z,98693.95
2019-05-19T23:19:08.604Z,98688.34
2019-05-19T23:21:42.218Z,98685.50
2019-05-19T23:24:15.577Z,98685.00
2019-05-19T23:26:48.884Z,98680.99
2019-05-19T23:29:21.514Z,98678.44
2019-05-19T23:32:06.222Z,98676.78
2019-05-19T23:34:30.078Z,98673.22
2019-05-19T23:37:03.076Z,98670.70
2019-05-19T23:39:36.757Z,98664.18
2019-05-19T23:42:09.999Z,98664.59
2019-05-19T23:44:43.450Z,98665.66
2019-05-19T23:47:16.439Z,98655.84
2019-05-19T23:49:49.929Z,98657.06
2019-05-19T23:52:24.231Z,98658.39
2019-05-19T23:54:56.929Z,98657.40
2019-05-19T23:57:29.797Z,98656.36
